sensor_id;sensor_type;location;lat;lon;timestamp;P1;durP1;ratioP1;P2;durP2;ratioP2
19285;SDS011;9776;50.798;6.430;2023-12-20T00:01:32;4.25;;;2.83;;
19285;SDS011;9776;50.798;6.430;2023-12-20T00:03:59;3.10;;;2.30;;
19285;SDS011;9776;50.798;6.430;2023-12-20T00:06:26;4.80;;;2.70;;
19285;SDS011;9776;50.798;6.430;2023-12-20T00:08:52;4.07;;;2.63;;
19285;SDS011;9776;50.798;6.430;2023-12-20T00:11:20;4.93;;;3.17;;
19285;SDS011;9776;50.798;6.430;2023-12-20T00:13:47;4.95;;;3.50;;
19285;SDS011;9776;50.798;6.430;2023-12-20T00:16:14;5.97;;;3.90;;
19285;SDS011;9776;50.798;6.430;2023-12-20T00:18:40;7.30;;;4.20;;
19285;SDS011;9776;50.798;6.430;2023-12-20T00:21:07;7.63;;;4.32;;
19285;SDS011;9776;50.798;6.430;2023-12-20T00:23:34;7.53;;;5.05;;
19285;SDS011;9776;50.798;6.430;2023-12-20T00:26:00;7.35;;;4.55;;
19285;SDS011;9776;50.798;6.430;2023-12-20T00:28:28;9.07;;;5.57;;
19285;SDS011;9776;50.798;6.430;2023-12-20T00:30:55;8.95;;;5.45;;
19285;SDS011;9776;50.798;6.430;2023-12-20T00:33:21;8.35;;;5.20;;
19285;SDS011;9776;50.798;6.430;2023-12-20T00:35:48;7.78;;;5.10;;
19285;SDS011;9776;50.798;6.430;2023-12-20T00:38:18;8.98;;;4.90;;
19285;SDS011;9776;50.798;6.430;2023-12-20T00:40:44;8.45;;;5.25;;
19285;SDS011;9776;50.798;6.430;2023-12-20T00:43:11;8.48;;;5.43;;
19285;SDS011;9776;50.798;6.430;2023-12-20T00:45:39;9.77;;;5.75;;
19285;SDS011;9776;50.798;6.430;2023-12-20T00:48:06;11.60;;;6.25;;
19285;SDS011;9776;50.798;6.430;2023-12-20T00:50:33;9.73;;;6.30;;
19285;SDS011;9776;50.798;6.430;2023-12-20T00:53:00;10.50;;;6.70;;
19285;SDS011;9776;50.798;6.430;2023-12-20T00:55:28;10.63;;;6.85;;
19285;SDS011;9776;50.798;6.430;2023-12-20T00:57:55;11.57;;;6.95;;
19285;SDS011;9776;50.798;6.430;2023-12-20T01:00:21;13.45;;;6.63;;
19285;SDS011;9776;50.798;6.430;2023-12-20T01:02:49;11.13;;;6.68;;
19285;SDS011;9776;50.798;6.430;2023-12-20T01:05:16;13.48;;;7.43;;
19285;SDS011;9776;50.798;6.430;2023-12-20T01:07:44;11.32;;;7.00;;
19285;SDS011;9776;50.798;6.430;2023-12-20T01:10:11;12.95;;;7.50;;
19285;SDS011;9776;50.798;6.430;2023-12-20T01:12:37;9.88;;;6.22;;
19285;SDS011;9776;50.798;6.430;2023-12-20T01:15:04;9.90;;;5.78;;
19285;SDS011;9776;50.798;6.430;2023-12-20T01:17:31;10.25;;;6.55;;
19285;SDS011;9776;50.798;6.430;2023-12-20T01:19:59;10.85;;;5.90;;
19285;SDS011;9776;50.798;6.430;2023-12-20T01:22:26;10.75;;;6.38;;
19285;SDS011;9776;50.798;6.430;2023-12-20T01:24:53;9.80;;;6.10;;
19285;SDS011;9776;50.798;6.430;2023-12-20T01:27:19;10.43;;;5.65;;
19285;SDS011;9776;50.798;6.430;2023-12-20T01:29:46;12.20;;;4.40;;
19285;SDS011;9776;50.798;6.430;2023-12-20T01:32:13;5.03;;;2.00;;
19285;SDS011;9776;50.798;6.430;2023-12-20T01:34:39;6.50;;;2.20;;
19285;SDS011;9776;50.798;6.430;2023-12-20T01:37:07;7.28;;;2.20;;
19285;SDS011;9776;50.798;6.430;2023-12-20T01:39:34;8.95;;;2.22;;
19285;SDS011;9776;50.798;6.430;2023-12-20T01:42:01;5.88;;;2.38;;
19285;SDS011;9776;50.798;6.430;2023-12-20T01:44:27;5.18;;;2.33;;
19285;SDS011;9776;50.798;6.430;2023-12-20T01:46:54;7.82;;;1.77;;
19285;SDS011;9776;50.798;6.430;2023-12-20T01:49:21;7.75;;;1.75;;
19285;SDS011;9776;50.798;6.430;2023-12-20T01:51:48;3.03;;;1.02;;
19285;SDS011;9776;50.798;6.430;2023-12-20T01:54:16;6.60;;;1.25;;
19285;SDS011;9776;50.798;6.430;2023-12-20T01:56:45;5.20;;;1.67;;
19285;SDS011;9776;50.798;6.430;2023-12-20T01:59:16;8.10;;;1.67;;
19285;SDS011;9776;50.798;6.430;2023-12-20T02:01:43;4.90;;;1.48;;
19285;SDS011;9776;50.798;6.430;2023-12-20T02:04:10;4.10;;;1.52;;
19285;SDS011;9776;50.798;6.430;2023-12-20T02:06:37;10.10;;;1.73;;
19285;SDS011;9776;50.798;6.430;2023-12-20T02:09:08;7.15;;;1.52;;
19285;SDS011;9776;50.798;6.430;2023-12-20T02:11:37;9.27;;;1.98;;
19285;SDS011;9776;50.798;6.430;2023-12-20T02:14:04;3.85;;;1.75;;
19285;SDS011;9776;50.798;6.430;2023-12-20T02:16:31;3.78;;;1.90;;
19285;SDS011;9776;50.798;6.430;2023-12-20T02:18:57;8.32;;;2.42;;
19285;SDS011;9776;50.798;6.430;2023-12-20T02:21:26;7.10;;;2.15;;
19285;SDS011;9776;50.798;6.430;2023-12-20T02:23:58;8.85;;;2.85;;
19285;SDS011;9776;50.798;6.430;2023-12-20T02:26:25;10.55;;;3.10;;
19285;SDS011;9776;50.798;6.430;2023-12-20T02:28:52;9.18;;;3.08;;
19285;SDS011;9776;50.798;6.430;2023-12-20T02:31:20;6.35;;;2.83;;
19285;SDS011;9776;50.798;6.430;2023-12-20T02:33:47;5.78;;;2.67;;
19285;SDS011;9776;50.798;6.430;2023-12-20T02:36:16;10.55;;;3.60;;
19285;SDS011;9776;50.798;6.430;2023-12-20T02:38:44;11.20;;;2.88;;
19285;SDS011;9776;50.798;6.430;2023-12-20T02:41:12;9.68;;;2.92;;
19285;SDS011;9776;50.798;6.430;2023-12-20T02:43:39;11.68;;;3.28;;
19285;SDS011;9776;50.798;6.430;2023-12-20T02:46:05;9.70;;;3.00;;
19285;SDS011;9776;50.798;6.430;2023-12-20T02:48:32;10.63;;;3.03;;
19285;SDS011;9776;50.798;6.430;2023-12-20T02:50:59;11.43;;;3.35;;
19285;SDS011;9776;50.798;6.430;2023-12-20T02:53:28;11.10;;;3.00;;
19285;SDS011;9776;50.798;6.430;2023-12-20T02:55:57;8.95;;;3.10;;
19285;SDS011;9776;50.798;6.430;2023-12-20T02:58:23;8.02;;;2.50;;
19285;SDS011;9776;50.798;6.430;2023-12-20T03:00:50;7.72;;;2.80;;
19285;SDS011;9776;50.798;6.430;2023-12-20T03:03:17;8.32;;;2.63;;
19285;SDS011;9776;50.798;6.430;2023-12-20T03:05:44;12.02;;;2.95;;
19285;SDS011;9776;50.798;6.430;2023-12-20T03:08:12;8.23;;;2.72;;
19285;SDS011;9776;50.798;6.430;2023-12-20T03:10:38;9.52;;;2.97;;
19285;SDS011;9776;50.798;6.430;2023-12-20T03:13:06;8.05;;;2.80;;
19285;SDS011;9776;50.798;6.430;2023-12-20T03:15:33;11.38;;;3.40;;
19285;SDS011;9776;50.798;6.430;2023-12-20T03:17:59;7.10;;;3.03;;
19285;SDS011;9776;50.798;6.430;2023-12-20T03:20:26;8.52;;;3.38;;
19285;SDS011;9776;50.798;6.430;2023-12-20T03:22:53;7.13;;;3.42;;
19285;SDS011;9776;50.798;6.430;2023-12-20T03:25:20;9.98;;;3.47;;
19285;SDS011;9776;50.798;6.430;2023-12-20T03:27:46;6.43;;;3.28;;
19285;SDS011;9776;50.798;6.430;2023-12-20T03:30:15;6.95;;;2.78;;
19285;SDS011;9776;50.798;6.430;2023-12-20T03:32:41;8.88;;;3.42;;
19285;SDS011;9776;50.798;6.430;2023-12-20T03:35:08;8.30;;;2.72;;
19285;SDS011;9776;50.798;6.430;2023-12-20T03:37:35;7.53;;;3.33;;
19285;SDS011;9776;50.798;6.430;2023-12-20T03:40:02;8.88;;;3.10;;
19285;SDS011;9776;50.798;6.430;2023-12-20T03:42:29;8.70;;;3.20;;
19285;SDS011;9776;50.798;6.430;2023-12-20T03:44:55;7.57;;;3.30;;
19285;SDS011;9776;50.798;6.430;2023-12-20T03:47:26;13.35;;;3.85;;
19285;SDS011;9776;50.798;6.430;2023-12-20T03:49:54;8.45;;;3.80;;
19285;SDS011;9776;50.798;6.430;2023-12-20T03:52:20;11.43;;;3.80;;
19285;SDS011;9776;50.798;6.430;2023-12-20T03:54:50;9.27;;;3.40;;
19285;SDS011;9776;50.798;6.430;2023-12-20T03:57:16;7.88;;;3.33;;
19285;SDS011;9776;50.798;6.430;2023-12-20T03:59:43;9.75;;;3.45;;
19285;SDS011;9776;50.798;6.430;2023-12-20T04:02:09;8.98;;;3.63;;
19285;SDS011;9776;50.798;6.430;2023-12-20T04:04:37;13.05;;;4.18;;
19285;SDS011;9776;50.798;6.430;2023-12-20T04:07:04;9.20;;;3.97;;
19285;SDS011;9776;50.798;6.430;2023-12-20T04:09:31;10.65;;;3.80;;
19285;SDS011;9776;50.798;6.430;2023-12-20T04:11:59;7.78;;;3.58;;
19285;SDS011;9776;50.798;6.430;2023-12-20T04:14:26;11.52;;;4.38;;
19285;SDS011;9776;50.798;6.430;2023-12-20T04:16:55;11.35;;;3.75;;
19285;SDS011;9776;50.798;6.430;2023-12-20T04:19:22;11.40;;;3.35;;
19285;SDS011;9776;50.798;6.430;2023-12-20T04:21:50;11.93;;;3.53;;
19285;SDS011;9776;50.798;6.430;2023-12-20T04:24:17;8.93;;;3.40;;
19285;SDS011;9776;50.798;6.430;2023-12-20T04:26:43;7.95;;;3.22;;
19285;SDS011;9776;50.798;6.430;2023-12-20T04:29:10;8.20;;;3.40;;
19285;SDS011;9776;50.798;6.430;2023-12-20T04:31:37;12.30;;;3.53;;
19285;SDS011;9776;50.798;6.430;2023-12-20T04:34:03;12.93;;;3.40;;
19285;SDS011;9776;50.798;6.430;2023-12-20T04:36:30;13.32;;;3.92;;
19285;SDS011;9776;50.798;6.430;2023-12-20T04:38:58;10.50;;;3.55;;
19285;SDS011;9776;50.798;6.430;2023-12-20T04:41:25;9.65;;;4.18;;
19285;SDS011;9776;50.798;6.430;2023-12-20T04:43:52;8.77;;;3.88;;
19285;SDS011;9776;50.798;6.430;2023-12-20T04:46:19;13.27;;;3.80;;
19285;SDS011;9776;50.798;6.430;2023-12-20T04:48:45;4.97;;;3.15;;
19285;SDS011;9776;50.798;6.430;2023-12-20T04:51:12;7.93;;;3.10;;
19285;SDS011;9776;50.798;6.430;2023-12-20T04:53:39;12.57;;;3.38;;
19285;SDS011;9776;50.798;6.430;2023-12-20T04:56:07;7.88;;;2.80;;
19285;SDS011;9776;50.798;6.430;2023-12-20T04:58:34;11.80;;;3.15;;
19285;SDS011;9776;50.798;6.430;2023-12-20T05:01:03;12.32;;;3.03;;
19285;SDS011;9776;50.798;6.430;2023-12-20T05:03:31;8.63;;;3.22;;
19285;SDS011;9776;50.798;6.430;2023-12-20T05:05:58;13.82;;;3.50;;
19285;SDS011;9776;50.798;6.430;2023-12-20T05:08:25;11.52;;;3.75;;
19285;SDS011;9776;50.798;6.430;2023-12-20T05:10:52;14.02;;;4.35;;
19285;SDS011;9776;50.798;6.430;2023-12-20T05:13:21;13.02;;;3.15;;
19285;SDS011;9776;50.798;6.430;2023-12-20T05:15:48;24.88;;;11.65;;
19285;SDS011;9776;50.798;6.430;2023-12-20T05:18:15;17.92;;;7.57;;
19285;SDS011;9776;50.798;6.430;2023-12-20T05:20:41;15.23;;;5.40;;
19285;SDS011;9776;50.798;6.430;2023-12-20T05:23:08;11.90;;;5.47;;
19285;SDS011;9776;50.798;6.430;2023-12-20T05:25:35;10.55;;;3.60;;
19285;SDS011;9776;50.798;6.430;2023-12-20T05:28:01;12.85;;;4.10;;
19285;SDS011;9776;50.798;6.430;2023-12-20T05:30:29;10.82;;;4.28;;
19285;SDS011;9776;50.798;6.430;2023-12-20T05:32:56;10.82;;;3.88;;
19285;SDS011;9776;50.798;6.430;2023-12-20T05:35:22;10.30;;;4.72;;
19285;SDS011;9776;50.798;6.430;2023-12-20T05:37:49;14.23;;;3.50;;
19285;SDS011;9776;50.798;6.430;2023-12-20T05:40:16;9.55;;;4.07;;
19285;SDS011;9776;50.798;6.430;2023-12-20T05:42:42;10.05;;;4.38;;
19285;SDS011;9776;50.798;6.430;2023-12-20T05:45:09;11.88;;;4.50;;
19285;SDS011;9776;50.798;6.430;2023-12-20T05:47:37;10.27;;;3.63;;
19285;SDS011;9776;50.798;6.430;2023-12-20T05:50:04;9.98;;;3.67;;
19285;SDS011;9776;50.798;6.430;2023-12-20T05:52:31;10.02;;;3.75;;
19285;SDS011;9776;50.798;6.430;2023-12-20T05:54:58;11.07;;;4.50;;
19285;SDS011;9776;50.798;6.430;2023-12-20T05:57:26;11.32;;;6.57;;
19285;SDS011;9776;50.798;6.430;2023-12-20T05:59:53;8.60;;;3.33;;
19285;SDS011;9776;50.798;6.430;2023-12-20T06:02:19;11.80;;;4.80;;
19285;SDS011;9776;50.798;6.430;2023-12-20T06:04:47;14.75;;;5.07;;
19285;SDS011;9776;50.798;6.430;2023-12-20T06:07:15;7.75;;;3.63;;
19285;SDS011;9776;50.798;6.430;2023-12-20T06:09:43;10.02;;;4.18;;
19285;SDS011;9776;50.798;6.430;2023-12-20T06:12:10;19.95;;;6.65;;
19285;SDS011;9776;50.798;6.430;2023-12-20T06:14:36;9.43;;;3.97;;
19285;SDS011;9776;50.798;6.430;2023-12-20T06:17:03;15.48;;;4.35;;
19285;SDS011;9776;50.798;6.430;2023-12-20T06:19:30;12.82;;;5.40;;
19285;SDS011;9776;50.798;6.430;2023-12-20T06:21:58;16.33;;;4.60;;
19285;SDS011;9776;50.798;6.430;2023-12-20T06:24:24;11.05;;;5.03;;
19285;SDS011;9776;50.798;6.430;2023-12-20T06:26:53;11.07;;;3.90;;
19285;SDS011;9776;50.798;6.430;2023-12-20T06:29:20;9.48;;;3.55;;
19285;SDS011;9776;50.798;6.430;2023-12-20T06:31:47;10.50;;;3.72;;
19285;SDS011;9776;50.798;6.430;2023-12-20T06:34:13;10.57;;;4.72;;
19285;SDS011;9776;50.798;6.430;2023-12-20T06:36:40;9.60;;;4.00;;
19285;SDS011;9776;50.798;6.430;2023-12-20T06:39:08;12.30;;;4.75;;
19285;SDS011;9776;50.798;6.430;2023-12-20T06:41:37;9.05;;;4.38;;
19285;SDS011;9776;50.798;6.430;2023-12-20T06:44:04;12.75;;;4.40;;
19285;SDS011;9776;50.798;6.430;2023-12-20T06:46:31;10.15;;;3.63;;
19285;SDS011;9776;50.798;6.430;2023-12-20T06:48:57;9.90;;;3.33;;
19285;SDS011;9776;50.798;6.430;2023-12-20T06:51:24;13.43;;;3.72;;
19285;SDS011;9776;50.798;6.430;2023-12-20T06:53:51;10.30;;;3.83;;
19285;SDS011;9776;50.798;6.430;2023-12-20T06:56:19;10.65;;;3.17;;
19285;SDS011;9776;50.798;6.430;2023-12-20T06:58:46;7.30;;;2.88;;
19285;SDS011;9776;50.798;6.430;2023-12-20T07:01:12;10.63;;;3.20;;
19285;SDS011;9776;50.798;6.430;2023-12-20T07:03:40;10.95;;;2.83;;
19285;SDS011;9776;50.798;6.430;2023-12-20T07:06:07;8.70;;;2.90;;
19285;SDS011;9776;50.798;6.430;2023-12-20T07:08:34;7.15;;;2.75;;
19285;SDS011;9776;50.798;6.430;2023-12-20T07:11:00;11.95;;;2.80;;
19285;SDS011;9776;50.798;6.430;2023-12-20T07:13:30;14.00;;;3.38;;
19285;SDS011;9776;50.798;6.430;2023-12-20T07:15:57;10.80;;;3.42;;
19285;SDS011;9776;50.798;6.430;2023-12-20T07:18:24;9.15;;;3.08;;
19285;SDS011;9776;50.798;6.430;2023-12-20T07:20:50;12.70;;;3.33;;
19285;SDS011;9776;50.798;6.430;2023-12-20T07:23:19;10.18;;;3.10;;
19285;SDS011;9776;50.798;6.430;2023-12-20T07:25:46;9.52;;;3.03;;
19285;SDS011;9776;50.798;6.430;2023-12-20T07:28:13;11.63;;;3.50;;
19285;SDS011;9776;50.798;6.430;2023-12-20T07:30:41;13.00;;;3.70;;
19285;SDS011;9776;50.798;6.430;2023-12-20T07:33:08;8.98;;;3.28;;
19285;SDS011;9776;50.798;6.430;2023-12-20T07:35:35;10.65;;;3.38;;
19285;SDS011;9776;50.798;6.430;2023-12-20T07:38:02;9.57;;;3.45;;
19285;SDS011;9776;50.798;6.430;2023-12-20T07:40:31;10.82;;;3.47;;
19285;SDS011;9776;50.798;6.430;2023-12-20T07:42:58;9.93;;;3.45;;
19285;SDS011;9776;50.798;6.430;2023-12-20T07:45:25;12.60;;;3.58;;
19285;SDS011;9776;50.798;6.430;2023-12-20T07:47:53;11.15;;;3.92;;
19285;SDS011;9776;50.798;6.430;2023-12-20T07:50:19;8.25;;;3.50;;
19285;SDS011;9776;50.798;6.430;2023-12-20T07:52:46;9.82;;;3.58;;
19285;SDS011;9776;50.798;6.430;2023-12-20T07:55:13;11.18;;;3.70;;
19285;SDS011;9776;50.798;6.430;2023-12-20T07:57:40;16.15;;;4.25;;
19285;SDS011;9776;50.798;6.430;2023-12-20T08:00:07;11.98;;;3.33;;
19285;SDS011;9776;50.798;6.430;2023-12-20T08:02:34;11.90;;;3.58;;
19285;SDS011;9776;50.798;6.430;2023-12-20T08:05:02;11.02;;;3.55;;
19285;SDS011;9776;50.798;6.430;2023-12-20T08:07:29;16.23;;;3.65;;
19285;SDS011;9776;50.798;6.430;2023-12-20T08:09:56;9.23;;;3.35;;
19285;SDS011;9776;50.798;6.430;2023-12-20T08:12:22;13.30;;;7.43;;
19285;SDS011;9776;50.798;6.430;2023-12-20T08:14:52;9.00;;;3.42;;
19285;SDS011;9776;50.798;6.430;2023-12-20T08:17:19;11.77;;;3.65;;
19285;SDS011;9776;50.798;6.430;2023-12-20T08:19:45;11.10;;;3.00;;
19285;SDS011;9776;50.798;6.430;2023-12-20T08:22:13;11.25;;;3.80;;
19285;SDS011;9776;50.798;6.430;2023-12-20T08:24:40;11.13;;;3.30;;
19285;SDS011;9776;50.798;6.430;2023-12-20T08:27:07;9.40;;;3.20;;
19285;SDS011;9776;50.798;6.430;2023-12-20T08:29:34;9.88;;;3.67;;
19285;SDS011;9776;50.798;6.430;2023-12-20T08:32:03;9.40;;;2.70;;
19285;SDS011;9776;50.798;6.430;2023-12-20T08:34:31;10.45;;;3.80;;
19285;SDS011;9776;50.798;6.430;2023-12-20T08:36:57;12.75;;;3.30;;
19285;SDS011;9776;50.798;6.430;2023-12-20T08:39:25;8.60;;;2.88;;
19285;SDS011;9776;50.798;6.430;2023-12-20T08:41:52;8.80;;;3.70;;
19285;SDS011;9776;50.798;6.430;2023-12-20T08:44:19;8.25;;;3.28;;
19285;SDS011;9776;50.798;6.430;2023-12-20T08:46:47;9.38;;;3.40;;
19285;SDS011;9776;50.798;6.430;2023-12-20T08:49:14;17.33;;;4.38;;
19285;SDS011;9776;50.798;6.430;2023-12-20T08:51:41;11.30;;;4.93;;
19285;SDS011;9776;50.798;6.430;2023-12-20T08:54:08;12.13;;;3.63;;
19285;SDS011;9776;50.798;6.430;2023-12-20T08:56:36;10.20;;;3.55;;
19285;SDS011;9776;50.798;6.430;2023-12-20T08:59:02;9.38;;;4.60;;
19285;SDS011;9776;50.798;6.430;2023-12-20T09:01:29;13.68;;;4.07;;
19285;SDS011;9776;50.798;6.430;2023-12-20T09:03:57;8.95;;;4.25;;
19285;SDS011;9776;50.798;6.430;2023-12-20T09:06:24;10.05;;;3.05;;
19285;SDS011;9776;50.798;6.430;2023-12-20T09:08:51;6.90;;;2.85;;
19285;SDS011;9776;50.798;6.430;2023-12-20T09:11:17;9.80;;;3.00;;
19285;SDS011;9776;50.798;6.430;2023-12-20T09:13:45;8.95;;;2.83;;
19285;SDS011;9776;50.798;6.430;2023-12-20T09:16:12;13.05;;;2.90;;
19285;SDS011;9776;50.798;6.430;2023-12-20T09:18:40;7.13;;;2.80;;
19285;SDS011;9776;50.798;6.430;2023-12-20T09:21:07;11.95;;;2.42;;
19285;SDS011;9776;50.798;6.430;2023-12-20T09:23:34;11.75;;;2.83;;
19285;SDS011;9776;50.798;6.430;2023-12-20T09:26:01;11.45;;;3.03;;
19285;SDS011;9776;50.798;6.430;2023-12-20T09:28:29;8.23;;;2.55;;
19285;SDS011;9776;50.798;6.430;2023-12-20T09:30:59;11.88;;;2.92;;
19285;SDS011;9776;50.798;6.430;2023-12-20T09:33:25;8.52;;;2.42;;
19285;SDS011;9776;50.798;6.430;2023-12-20T09:35:52;7.28;;;2.78;;
19285;SDS011;9776;50.798;6.430;2023-12-20T09:38:18;10.35;;;2.40;;
19285;SDS011;9776;50.798;6.430;2023-12-20T09:40:45;12.48;;;2.33;;
19285;SDS011;9776;50.798;6.430;2023-12-20T09:43:13;8.38;;;2.50;;
19285;SDS011;9776;50.798;6.430;2023-12-20T09:45:41;9.23;;;2.50;;
19285;SDS011;9776;50.798;6.430;2023-12-20T09:48:11;8.85;;;2.35;;
19285;SDS011;9776;50.798;6.430;2023-12-20T09:50:39;6.78;;;2.70;;
19285;SDS011;9776;50.798;6.430;2023-12-20T09:53:07;7.68;;;2.90;;
19285;SDS011;9776;50.798;6.430;2023-12-20T09:55:36;7.10;;;2.97;;
19285;SDS011;9776;50.798;6.430;2023-12-20T09:58:03;6.45;;;2.45;;
19285;SDS011;9776;50.798;6.430;2023-12-20T10:00:32;11.10;;;3.03;;
19285;SDS011;9776;50.798;6.430;2023-12-20T10:02:59;8.25;;;2.60;;
19285;SDS011;9776;50.798;6.430;2023-12-20T10:05:28;11.57;;;2.88;;
19285;SDS011;9776;50.798;6.430;2023-12-20T10:07:55;9.95;;;2.65;;
19285;SDS011;9776;50.798;6.430;2023-12-20T10:10:22;8.55;;;2.83;;
19285;SDS011;9776;50.798;6.430;2023-12-20T10:15:32;8.55;;;2.58;;
19285;SDS011;9776;50.798;6.430;2023-12-20T10:17:59;9.88;;;2.80;;
19285;SDS011;9776;50.798;6.430;2023-12-20T10:20:28;10.23;;;3.17;;
19285;SDS011;9776;50.798;6.430;2023-12-20T10:22:55;5.47;;;2.55;;
19285;SDS011;9776;50.798;6.430;2023-12-20T10:25:21;9.35;;;3.35;;
19285;SDS011;9776;50.798;6.430;2023-12-20T10:27:49;5.40;;;2.65;;
19285;SDS011;9776;50.798;6.430;2023-12-20T10:30:16;7.95;;;2.65;;
19285;SDS011;9776;50.798;6.430;2023-12-20T10:32:43;7.43;;;2.83;;
19285;SDS011;9776;50.798;6.430;2023-12-20T10:35:09;8.80;;;2.83;;
19285;SDS011;9776;50.798;6.430;2023-12-20T10:37:37;14.15;;;4.80;;
19285;SDS011;9776;50.798;6.430;2023-12-20T10:40:04;7.28;;;2.85;;
19285;SDS011;9776;50.798;6.430;2023-12-20T10:42:32;9.35;;;3.03;;
19285;SDS011;9776;50.798;6.430;2023-12-20T10:44:59;12.20;;;3.25;;
19285;SDS011;9776;50.798;6.430;2023-12-20T10:47:26;11.35;;;3.03;;
19285;SDS011;9776;50.798;6.430;2023-12-20T10:49:57;6.65;;;2.58;;
19285;SDS011;9776;50.798;6.430;2023-12-20T10:52:25;7.97;;;2.42;;
19285;SDS011;9776;50.798;6.430;2023-12-20T10:54:55;9.25;;;2.92;;
19285;SDS011;9776;50.798;6.430;2023-12-20T10:57:22;6.18;;;2.85;;
19285;SDS011;9776;50.798;6.430;2023-12-20T10:59:50;7.72;;;2.65;;
19285;SDS011;9776;50.798;6.430;2023-12-20T11:02:19;11.10;;;3.17;;
19285;SDS011;9776;50.798;6.430;2023-12-20T11:04:49;8.68;;;2.90;;
19285;SDS011;9776;50.798;6.430;2023-12-20T11:07:21;6.90;;;2.83;;
19285;SDS011;9776;50.798;6.430;2023-12-20T11:09:56;8.30;;;2.80;;
19285;SDS011;9776;50.798;6.430;2023-12-20T11:12:28;8.13;;;2.97;;
19285;SDS011;9776;50.798;6.430;2023-12-20T11:15:03;13.68;;;3.20;;
19285;SDS011;9776;50.798;6.430;2023-12-20T11:17:31;6.35;;;2.92;;
19285;SDS011;9776;50.798;6.430;2023-12-20T11:20:05;11.82;;;2.88;;
19285;SDS011;9776;50.798;6.430;2023-12-20T11:22:35;10.88;;;3.55;;
19285;SDS011;9776;50.798;6.430;2023-12-20T11:25:05;10.57;;;2.92;;
19285;SDS011;9776;50.798;6.430;2023-12-20T11:27:33;6.95;;;2.50;;
19285;SDS011;9776;50.798;6.430;2023-12-20T11:30:02;8.23;;;2.63;;
19285;SDS011;9776;50.798;6.430;2023-12-20T11:32:33;8.90;;;2.50;;
19285;SDS011;9776;50.798;6.430;2023-12-20T11:35:01;9.35;;;2.35;;
19285;SDS011;9776;50.798;6.430;2023-12-20T11:37:43;6.20;;;2.55;;
19285;SDS011;9776;50.798;6.430;2023-12-20T11:40:13;7.35;;;2.80;;
19285;SDS011;9776;50.798;6.430;2023-12-20T11:42:42;12.18;;;2.33;;
19285;SDS011;9776;50.798;6.430;2023-12-20T11:45:13;9.77;;;2.60;;
19285;SDS011;9776;50.798;6.430;2023-12-20T11:47:41;7.55;;;3.05;;
19285;SDS011;9776;50.798;6.430;2023-12-20T11:50:09;9.43;;;3.25;;
19285;SDS011;9776;50.798;6.430;2023-12-20T11:52:35;8.35;;;2.95;;
19285;SDS011;9776;50.798;6.430;2023-12-20T11:55:02;9.00;;;2.47;;
19285;SDS011;9776;50.798;6.430;2023-12-20T11:57:32;6.53;;;3.30;;
19285;SDS011;9776;50.798;6.430;2023-12-20T12:00:00;7.15;;;2.70;;
19285;SDS011;9776;50.798;6.430;2023-12-20T12:02:27;6.88;;;2.78;;
19285;SDS011;9776;50.798;6.430;2023-12-20T12:04:55;8.50;;;2.50;;
19285;SDS011;9776;50.798;6.430;2023-12-20T12:07:23;7.35;;;3.00;;
19285;SDS011;9776;50.798;6.430;2023-12-20T12:09:50;8.27;;;3.38;;
19285;SDS011;9776;50.798;6.430;2023-12-20T12:12:17;7.95;;;3.05;;
19285;SDS011;9776;50.798;6.430;2023-12-20T12:14:46;6.45;;;2.92;;
19285;SDS011;9776;50.798;6.430;2023-12-20T12:17:14;7.93;;;3.20;;
19285;SDS011;9776;50.798;6.430;2023-12-20T12:19:41;10.05;;;2.85;;
19285;SDS011;9776;50.798;6.430;2023-12-20T12:22:09;12.15;;;3.40;;
19285;SDS011;9776;50.798;6.430;2023-12-20T12:24:38;8.90;;;3.38;;
19285;SDS011;9776;50.798;6.430;2023-12-20T12:27:05;10.00;;;2.85;;
19285;SDS011;9776;50.798;6.430;2023-12-20T12:29:33;8.60;;;3.00;;
19285;SDS011;9776;50.798;6.430;2023-12-20T12:32:02;8.60;;;2.67;;
19285;SDS011;9776;50.798;6.430;2023-12-20T12:34:31;8.48;;;2.58;;
19285;SDS011;9776;50.798;6.430;2023-12-20T12:37:01;8.32;;;2.72;;
19285;SDS011;9776;50.798;6.430;2023-12-20T12:39:28;8.52;;;2.42;;
19285;SDS011;9776;50.798;6.430;2023-12-20T12:41:56;6.53;;;2.97;;
19285;SDS011;9776;50.798;6.430;2023-12-20T12:44:23;8.10;;;2.95;;
19285;SDS011;9776;50.798;6.430;2023-12-20T12:46:50;10.88;;;2.75;;
19285;SDS011;9776;50.798;6.430;2023-12-20T12:49:20;9.95;;;2.60;;
19285;SDS011;9776;50.798;6.430;2023-12-20T12:51:47;6.03;;;2.90;;
19285;SDS011;9776;50.798;6.430;2023-12-20T12:54:13;12.10;;;3.40;;
19285;SDS011;9776;50.798;6.430;2023-12-20T12:56:43;7.28;;;3.35;;
19285;SDS011;9776;50.798;6.430;2023-12-20T12:59:12;7.38;;;2.63;;
19285;SDS011;9776;50.798;6.430;2023-12-20T13:01:38;7.32;;;3.10;;
19285;SDS011;9776;50.798;6.430;2023-12-20T13:04:05;7.32;;;2.45;;
19285;SDS011;9776;50.798;6.430;2023-12-20T13:06:37;9.68;;;2.90;;
19285;SDS011;9776;50.798;6.430;2023-12-20T13:09:04;8.35;;;2.40;;
19285;SDS011;9776;50.798;6.430;2023-12-20T13:11:31;6.18;;;2.58;;
19285;SDS011;9776;50.798;6.430;2023-12-20T13:13:58;6.20;;;2.50;;
19285;SDS011;9776;50.798;6.430;2023-12-20T13:16:24;6.38;;;2.30;;
19285;SDS011;9776;50.798;6.430;2023-12-20T13:18:51;9.02;;;2.53;;
19285;SDS011;9776;50.798;6.430;2023-12-20T13:21:18;9.73;;;2.92;;
19285;SDS011;9776;50.798;6.430;2023-12-20T13:23:46;9.90;;;2.47;;
19285;SDS011;9776;50.798;6.430;2023-12-20T13:26:12;6.05;;;2.50;;
19285;SDS011;9776;50.798;6.430;2023-12-20T13:28:39;8.82;;;2.60;;
19285;SDS011;9776;50.798;6.430;2023-12-20T13:31:08;5.35;;;2.05;;
19285;SDS011;9776;50.798;6.430;2023-12-20T13:33:35;6.10;;;2.50;;
19285;SDS011;9776;50.798;6.430;2023-12-20T13:36:03;8.95;;;2.95;;
19285;SDS011;9776;50.798;6.430;2023-12-20T13:38:30;8.25;;;3.28;;
19285;SDS011;9776;50.798;6.430;2023-12-20T13:40:58;7.00;;;2.20;;
19285;SDS011;9776;50.798;6.430;2023-12-20T13:43:25;7.53;;;2.60;;
19285;SDS011;9776;50.798;6.430;2023-12-20T13:45:52;8.55;;;2.80;;
19285;SDS011;9776;50.798;6.430;2023-12-20T13:48:18;6.22;;;2.53;;
19285;SDS011;9776;50.798;6.430;2023-12-20T13:50:48;6.35;;;2.60;;
19285;SDS011;9776;50.798;6.430;2023-12-20T13:53:14;5.57;;;2.20;;
19285;SDS011;9776;50.798;6.430;2023-12-20T13:55:41;6.63;;;2.80;;
19285;SDS011;9776;50.798;6.430;2023-12-20T13:58:09;7.40;;;3.28;;
19285;SDS011;9776;50.798;6.430;2023-12-20T14:00:36;6.65;;;2.75;;
19285;SDS011;9776;50.798;6.430;2023-12-20T14:03:03;4.20;;;2.20;;
19285;SDS011;9776;50.798;6.430;2023-12-20T14:05:30;7.05;;;2.42;;
19285;SDS011;9776;50.798;6.430;2023-12-20T14:07:58;7.13;;;2.30;;
19285;SDS011;9776;50.798;6.430;2023-12-20T14:10:25;6.65;;;2.20;;
19285;SDS011;9776;50.798;6.430;2023-12-20T14:12:52;8.13;;;2.40;;
19285;SDS011;9776;50.798;6.430;2023-12-20T14:15:20;5.95;;;3.83;;
19285;SDS011;9776;50.798;6.430;2023-12-20T14:17:50;5.25;;;2.35;;
19285;SDS011;9776;50.798;6.430;2023-12-20T14:20:18;12.23;;;2.10;;
19285;SDS011;9776;50.798;6.430;2023-12-20T14:22:45;10.38;;;2.63;;
19285;SDS011;9776;50.798;6.430;2023-12-20T14:25:11;7.47;;;2.33;;
19285;SDS011;9776;50.798;6.430;2023-12-20T14:27:39;7.00;;;2.70;;
19285;SDS011;9776;50.798;6.430;2023-12-20T14:30:08;6.00;;;2.67;;
19285;SDS011;9776;50.798;6.430;2023-12-20T14:32:37;10.20;;;3.17;;
19285;SDS011;9776;50.798;6.430;2023-12-20T14:35:04;7.85;;;3.10;;
19285;SDS011;9776;50.798;6.430;2023-12-20T14:37:32;10.90;;;3.65;;
19285;SDS011;9776;50.798;6.430;2023-12-20T14:39:58;11.00;;;3.30;;
19285;SDS011;9776;50.798;6.430;2023-12-20T14:42:25;7.68;;;3.40;;
19285;SDS011;9776;50.798;6.430;2023-12-20T14:44:51;8.60;;;4.15;;
19285;SDS011;9776;50.798;6.430;2023-12-20T14:47:19;28.00;;;13.52;;
19285;SDS011;9776;50.798;6.430;2023-12-20T14:49:47;14.65;;;4.65;;
19285;SDS011;9776;50.798;6.430;2023-12-20T14:52:14;15.57;;;6.78;;
19285;SDS011;9776;50.798;6.430;2023-12-20T14:54:40;18.98;;;9.45;;
19285;SDS011;9776;50.798;6.430;2023-12-20T14:57:08;19.23;;;10.15;;
19285;SDS011;9776;50.798;6.430;2023-12-20T14:59:35;13.52;;;6.93;;